Time;durP1;ratioP1;P1;durP2;ratioP2;P2;SDS_P1;SDS_P2;PMS_P1;PMS_P2;Temp;Humidity;BMP_temperature;BMP_pressure;BME280_temperature;BME280_humidity;BME280_pressure;Samples;Min_cycle;Max_cycle;Signal;HPM_P1;HPM_P2
2023/03/12 00:00:09;;;;;;;342.70;61.47;;;-1.30;99.90;;;-1.54;88.09;98626.88;4944650;28;20226;-82
2023/03/12 00:02:36;;;;;;;370.23;68.73;;;-1.40;99.90;;;-1.51;88.54;98638.19;4943076;28;20723;-82
2023/03/12 00:05:04;;;;;;;353.47;66.07;;;-0.70;99.90;;;-1.47;88.03;98644.34;4940053;28;20877;-83
2023/03/12 00:07:31;;;;;;;353.20;63.73;;;-1.30;99.90;;;-1.53;88.15;98646.78;4940560;28;20276;-83
2023/03/12 00:09:58;;;;;;;347.77;63.73;;;-1.20;99.90;;;-1.52;88.71;98659.78;4940287;28;20328;-83
2023/03/12 00:12:26;;;;;;;357.70;66.43;;;-0.70;99.90;;;-1.49;88.62;98672.81;4938710;28;20241;-83
2023/03/12 00:14:53;;;;;;;356.70;65.03;;;-0.40;99.90;;;-1.49;88.74;98678.00;4938801;28;20242;-83
2023/03/12 00:17:20;;;;;;;352.43;64.67;;;-0.70;99.90;;;-1.53;89.02;98690.84;4940155;28;20238;-83
2023/03/12 00:19:52;;;;;;;351.90;63.70;;;-1.40;99.90;;;-1.43;89.48;98700.63;4938516;28;20355;-83
2023/03/12 00:22:21;;;;;;;345.53;62.17;;;-1.20;99.90;;;-1.48;89.56;98710.88;4959557;28;20257;-83
2023/03/12 00:24:54;;;;;;;356.77;66.23;;;-1.30;99.90;;;-1.60;89.53;98713.09;4939132;28;20242;-83
2023/03/12 00:27:23;;;;;;;341.83;60.33;;;-1.40;99.90;;;-1.61;89.38;98717.41;4942024;28;20229;-83
2023/03/12 00:29:51;;;;;;;343.37;61.77;;;-1.50;99.90;;;-1.65;89.83;98707.78;4945855;28;20241;-83
2023/03/12 00:32:18;;;;;;;352.27;64.13;;;-1.50;99.90;;;-1.66;89.94;98729.34;4956600;28;20241;-83
2023/03/12 00:34:51;;;;;;;344.83;60.83;;;-0.90;99.90;;;-1.67;90.32;98737.97;4940362;28;20253;-83
2023/03/12 00:37:19;;;;;;;360.63;66.67;;;-1.20;99.90;;;-1.64;91.05;98753.59;4939209;28;20254;-84
2023/03/12 00:39:46;;;;;;;349.00;63.33;;;-1.50;99.90;;;-1.66;91.01;98764.75;4940061;28;20316;-83
2023/03/12 00:42:13;;;;;;;347.93;62.90;;;-1.20;99.90;;;-1.72;91.54;98773.22;4939013;28;20261;-84
2023/03/12 00:44:42;;;;;;;359.73;66.50;;;-1.50;99.90;;;-1.61;92.05;98802.06;4940846;28;20297;-83
2023/03/12 00:47:10;;;;;;;372.90;72.30;;;-0.70;99.90;;;-1.59;92.27;98810.75;4941407;28;20294;-83
2023/03/12 00:49:37;;;;;;;360.20;67.07;;;-1.50;99.90;;;-1.50;92.36;98833.50;4940414;28;20290;-84
2023/03/12 00:52:05;;;;;;;352.47;68.83;;;-1.40;99.90;;;-1.44;92.78;98839.75;4938870;28;20303;-83
2023/03/12 00:54:32;;;;;;;354.77;67.47;;;-1.30;99.90;;;-1.45;92.88;98855.25;4937588;28;20407;-84
2023/03/12 00:57:00;;;;;;;354.23;67.33;;;-1.40;99.90;;;-1.42;93.60;98871.78;4940430;28;20237;-84
2023/03/12 00:59:27;;;;;;;376.00;74.77;;;-1.30;99.90;;;-1.41;94.17;98883.91;4941724;28;20233;-84
2023/03/12 01:01:54;;;;;;;354.57;67.97;;;-1.30;99.90;;;-1.42;94.78;98897.69;4942001;28;20238;-83
2023/03/12 01:04:22;;;;;;;361.43;70.20;;;-1.30;99.90;;;-1.40;95.03;98908.13;4936220;28;20237;-83
2023/03/12 01:06:49;;;;;;;358.00;69.30;;;-1.30;99.90;;;-1.46;95.71;98928.66;4936645;28;20245;-83
2023/03/12 01:09:16;;;;;;;356.13;69.97;;;-1.30;99.90;;;-1.46;96.55;98939.91;4937713;28;20332;-84
2023/03/12 01:11:44;;;;;;;350.00;66.73;;;-0.50;99.90;;;-1.44;96.80;98958.13;4953249;28;20249;-84
2023/03/12 01:14:11;;;;;;;358.00;66.83;;;-1.30;99.90;;;-1.44;97.63;98963.31;4939308;28;20244;-84
2023/03/12 01:16:38;;;;;;;353.83;64.80;;;-1.00;99.90;;;-1.59;98.04;98976.63;4940210;28;20234;-84
2023/03/12 01:19:05;;;;;;;339.50;59.83;;;-1.40;99.90;;;-1.69;98.61;98984.94;4948158;28;20260;-84
2023/03/12 01:21:32;;;;;;;346.53;61.63;;;-1.50;99.90;;;-1.74;99.49;99000.31;4944733;28;20249;-85
2023/03/12 01:23:59;;;;;;;342.10;61.17;;;-1.50;99.90;;;-1.87;100.00;99008.50;4943909;28;20240;-84
2023/03/12 01:26:26;;;;;;;358.83;67.00;;;-1.60;99.90;;;-1.86;100.00;99023.22;4941439;28;20265;-84
2023/03/12 01:28:53;;;;;;;357.77;65.80;;;-1.50;99.90;;;-1.95;100.00;99036.72;4942680;28;20249;-84
2023/03/12 01:31:21;;;;;;;357.87;66.40;;;-1.60;99.90;;;-1.95;100.00;99044.50;4942808;28;20237;-84
2023/03/12 01:33:51;;;;;;;359.67;66.13;;;-1.80;99.90;;;-1.96;100.00;99047.91;4942730;28;20320;-84
2023/03/12 01:36:21;;;;;;;357.93;65.30;;;-1.10;99.90;;;-1.94;100.00;99051.44;4941482;28;20238;-84
2023/03/12 01:38:51;;;;;;;340.97;60.10;;;-1.80;99.90;;;-1.92;100.00;99059.25;4949322;28;20248;-84
2023/03/12 01:41:19;;;;;;;353.13;63.30;;;-1.70;99.90;;;-1.96;100.00;99063.44;4948200;28;20292;-84
2023/03/12 01:43:46;;;;;;;349.57;62.53;;;-1.80;99.90;;;-1.88;100.00;99086.16;4943971;28;20296;-84
2023/03/12 01:46:29;;;;;;;358.00;65.33;;;-1.70;99.90;;;-1.78;100.00;99098.63;4942394;28;20242;-84
2023/03/12 01:48:59;;;;;;;361.63;67.03;;;-1.70;99.90;;;-1.86;100.00;99107.84;4953798;28;20260;-84
2023/03/12 01:51:53;;;;;;;353.80;63.67;;;-1.70;99.90;;;-1.89;100.00;99108.59;4942717;28;20229;-84
2023/03/12 01:54:31;;;;;;;354.03;63.70;;;-1.70;99.90;;;-1.84;100.00;99119.13;4946264;28;20233;-84
2023/03/12 01:56:59;;;;;;;370.37;69.30;;;-1.70;99.90;;;-1.81;100.00;99132.19;4939772;28;20230;-84
2023/03/12 01:59:34;;;;;;;360.70;66.83;;;-1.50;99.90;;;-1.92;100.00;99126.63;4939189;28;20288;-85
2023/03/12 02:02:04;;;;;;;369.93;69.40;;;-1.70;99.90;;;-1.92;100.00;99124.03;4942908;28;20276;-84
2023/03/12 02:04:32;;;;;;;362.43;66.73;;;-1.60;99.90;;;-1.89;100.00;99131.03;4956688;28;20752;-84
2023/03/12 02:07:07;;;;;;;356.67;65.37;;;-1.80;99.90;;;-1.96;100.00;99143.75;4941923;28;20254;-83
2023/03/12 02:09:42;;;;;;;451.33;111.23;;;-1.80;99.90;;;-1.98;100.00;99160.06;4943152;28;20253;-83
2023/03/12 02:12:11;;;;;;;340.97;60.77;;;-1.10;99.90;;;-1.96;100.00;99161.91;4943136;28;20238;-84
2023/03/12 02:14:39;;;;;;;351.23;64.20;;;-1.80;99.90;;;-1.95;100.00;99165.38;4942799;28;20238;-84
2023/03/12 02:17:07;;;;;;;344.27;62.03;;;-1.80;99.90;;;-1.77;100.00;99193.69;4943506;28;20238;-84
2023/03/12 02:19:51;;;;;;;348.30;62.20;;;-1.70;99.90;;;-1.85;100.00;99200.28;4954007;28;20244;-84
2023/03/12 02:22:20;;;;;;;347.83;63.40;;;-1.60;99.90;;;-1.82;100.00;99208.16;4950112;28;20304;-84
2023/03/12 02:25:02;;;;;;;357.97;67.27;;;-0.60;99.90;;;-1.85;100.00;99202.88;4942470;28;20234;-84
2023/03/12 02:27:35;;;;;;;351.90;64.80;;;-1.70;99.90;;;-1.88;100.00;99218.31;4947653;28;20245;-84
2023/03/12 02:30:05;;;;;;;343.13;62.10;;;-1.50;99.90;;;-1.83;100.00;99229.72;4950727;29;20269;-84
2023/03/12 02:32:37;;;;;;;355.73;67.63;;;-1.70;99.90;;;-1.79;100.00;99241.97;4951175;28;20241;-84
2023/03/12 02:35:06;;;;;;;345.30;63.27;;;-1.60;99.90;;;-1.79;100.00;99250.63;4952310;29;20245;-84
2023/03/12 02:37:33;;;;;;;345.87;62.57;;;-1.60;99.90;;;-1.80;100.00;99256.63;4955000;28;20245;-84
2023/03/12 02:40:41;;;;;;;351.80;65.53;;;-1.60;99.90;;;-1.71;100.00;99269.06;4950698;28;20710;-84
2023/03/12 02:43:09;;;;;;;344.00;61.20;;;-1.60;99.90;;;-1.58;100.00;99291.16;4951778;28;20320;-84
2023/03/12 02:45:37;;;;;;;349.27;64.77;;;-0.60;99.90;;;-1.57;100.00;99291.22;4955562;28;20234;-84
2023/03/12 02:48:07;;;;;;;348.70;64.90;;;-1.40;99.90;;;-1.54;100.00;99298.22;4948543;28;20247;-84
2023/03/12 02:50:35;;;;;;;363.43;69.03;;;-1.40;99.90;;;-1.49;100.00;99300.16;4954081;28;20257;-85
2023/03/12 02:53:02;;;;;;;342.43;62.43;;;-0.10;99.90;;;-1.49;100.00;99299.28;4954798;28;20269;-84
2023/03/12 02:55:29;;;;;;;346.00;65.13;;;-0.40;99.90;;;-1.41;100.00;99306.53;4952296;28;20249;-84
2023/03/12 02:57:56;;;;;;;347.90;65.20;;;0.00;99.90;;;-1.39;100.00;99312.66;4952298;28;20234;-84
2023/03/12 03:00:24;;;;;;;345.57;61.57;;;-1.20;99.90;;;-1.37;100.00;99308.41;4953589;29;20320;-84
2023/03/12 03:02:51;;;;;;;351.97;63.40;;;-0.20;99.90;;;-1.28;100.00;99323.47;4953583;28;20233;-84
2023/03/12 03:05:19;;;;;;;349.20;65.57;;;-0.70;99.90;;;-1.24;100.00;99319.28;4943642;28;20312;-84
2023/03/12 03:07:46;;;;;;;347.90;63.47;;;-1.10;99.90;;;-1.18;100.00;99316.94;4950880;28;20237;-84
2023/03/12 03:10:16;;;;;;;354.10;66.30;;;-0.20;99.90;;;-1.14;100.00;99329.19;4943520;28;20295;-84
2023/03/12 03:12:43;;;;;;;354.33;66.23;;;-1.00;99.90;;;-1.11;100.00;99334.50;4947093;28;20226;-84
2023/03/12 03:15:11;;;;;;;343.93;64.20;;;-0.30;99.90;;;-1.02;100.00;99335.72;4945965;28;20234;-84
2023/03/12 03:17:38;;;;;;;360.90;67.77;;;-0.20;99.90;;;-1.02;100.00;99335.72;4963407;28;20801;-84
2023/03/12 03:20:09;;;;;;;347.77;64.30;;;-0.90;99.90;;;-1.00;100.00;99340.97;4955382;28;20245;-84
2023/03/12 03:22:38;;;;;;;353.60;66.10;;;-0.80;99.90;;;-0.94;100.00;99342.91;4949305;28;20249;-84
2023/03/12 03:25:08;;;;;;;351.67;65.70;;;0.00;99.90;;;-0.88;100.00;99337.94;4947568;28;20242;-84
2023/03/12 03:27:44;;;;;;;354.10;65.63;;;-0.70;99.90;;;-0.86;100.00;99333.69;4948754;28;20233;-84
2023/03/12 03:30:16;;;;;;;349.00;65.70;;;-0.70;99.90;;;-0.84;100.00;99347.59;4952686;28;20710;-84
2023/03/12 03:32:43;;;;;;;357.97;69.50;;;-0.70;99.90;;;-0.84;100.00;99345.00;4953163;28;20288;-84
2023/03/12 03:35:11;;;;;;;349.17;67.00;;;-0.40;99.90;;;-0.75;100.00;99348.81;4949472;28;20245;-84
2023/03/12 03:37:38;;;;;;;362.77;71.13;;;-0.60;99.90;;;-0.73;100.00;99352.34;4953507;28;20229;-84
2023/03/12 03:40:10;;;;;;;359.83;71.17;;;0.20;99.90;;;-0.65;100.00;99355.22;4935672;29;20252;-85
2023/03/12 03:42:38;;;;;;;362.47;67.70;;;-0.50;99.90;;;-0.70;100.00;99349.88;4932169;28;20238;-84
2023/03/12 03:45:07;;;;;;;352.37;65.17;;;0.40;99.90;;;-0.69;100.00;99351.63;4947207;28;20230;-84
2023/03/12 03:47:35;;;;;;;359.73;79.17;;;-0.50;99.90;;;-0.66;100.00;99358.66;4951386;28;20233;-84
2023/03/12 03:50:05;;;;;;;348.10;67.87;;;-0.50;99.90;;;-0.79;100.00;99372.00;4932607;29;20238;-84
2023/03/12 03:52:32;;;;;;;358.23;69.33;;;-0.60;99.90;;;-0.85;100.00;99371.78;4951519;28;20254;-84
2023/03/12 03:55:00;;;;;;;366.97;74.07;;;-0.60;99.90;;;-0.82;100.00;99380.56;4949633;29;20237;-84
2023/03/12 03:57:28;;;;;;;354.40;69.77;;;0.10;99.90;;;-0.83;100.00;99360.63;4951464;28;20248;-84
2023/03/12 03:59:57;;;;;;;351.63;68.50;;;-0.10;99.90;;;-0.79;100.00;99369.41;4947610;28;20238;-84
2023/03/12 04:02:28;;;;;;;358.47;70.63;;;0.00;99.90;;;-0.82;100.00;99361.50;4946891;28;20644;-84
2023/03/12 04:04:58;;;;;;;367.87;75.40;;;0.20;99.90;;;-0.84;100.00;99366.66;4951700;28;20249;-84
2023/03/12 04:07:27;;;;;;;360.90;71.20;;;0.40;99.90;;;-0.85;100.00;99376.97;4950790;28;20240;-84
2023/03/12 04:09:56;;;;;;;353.73;69.20;;;-0.10;99.90;;;-0.88;100.00;99379.44;4952367;28;20249;-84
2023/03/12 04:12:24;;;;;;;352.43;68.20;;;0.20;99.90;;;-0.87;100.00;99395.09;4950035;28;20268;-84
2023/03/12 04:14:52;;;;;;;360.37;69.83;;;0.10;99.90;;;-0.87;100.00;99394.19;4948851;28;20237;-84
2023/03/12 04:17:19;;;;;;;350.67;68.40;;;0.20;99.90;;;-0.81;100.00;99397.91;4944999;28;20766;-84
2023/03/12 04:19:46;;;;;;;359.27;69.00;;;-0.20;99.90;;;-0.78;100.00;99402.31;4948028;28;20269;-84
2023/03/12 04:22:14;;;;;;;362.70;70.90;;;-0.10;99.90;;;-0.76;100.00;99411.94;4947494;28;20241;-84
2023/03/12 04:24:41;;;;;;;363.60;71.97;;;0.30;99.90;;;-0.74;100.00;99428.47;4951791;28;20306;-84
2023/03/12 04:27:08;;;;;;;354.50;65.50;;;-0.50;99.90;;;-0.69;100.00;99445.09;4950069;28;20248;-84
2023/03/12 04:29:37;;;;;;;369.00;71.77;;;0.20;99.90;;;-0.60;100.00;99457.53;4958486;28;20334;-84
2023/03/12 04:32:05;;;;;;;351.00;68.73;;;0.20;99.90;;;-0.67;100.00;99459.00;4945525;28;20245;-84
2023/03/12 04:34:33;;;;;;;355.37;68.70;;;-0.50;99.90;;;-0.71;100.00;99464.91;4946491;28;20297;-84
2023/03/12 04:37:01;;;;;;;364.60;73.97;;;-0.50;99.90;;;-0.70;100.00;99451.09;4951418;28;20241;-84
2023/03/12 04:39:29;;;;;;;356.10;70.10;;;-0.50;99.90;;;-0.70;100.00;99461.50;4947222;28;20246;-84
2023/03/12 04:41:56;;;;;;;347.80;65.73;;;-0.50;99.90;;;-0.59;100.00;99466.19;4933649;29;20248;-84
2023/03/12 04:44:23;;;;;;;351.10;67.83;;;0.40;99.90;;;-0.66;100.00;99471.16;4945721;28;20355;-84
2023/03/12 04:46:50;;;;;;;349.40;66.80;;;0.30;99.90;;;-0.66;100.00;99463.38;4950557;28;20301;-85
2023/03/12 04:49:17;;;;;;;363.63;73.80;;;0.20;99.90;;;-0.77;100.00;99474.19;4947799;28;20245;-84
2023/03/12 04:51:45;;;;;;;359.93;70.20;;;-0.50;99.90;;;-0.74;100.00;99472.59;4946314;28;20242;-84
2023/03/12 04:54:12;;;;;;;349.33;68.20;;;-0.60;99.90;;;-0.80;100.00;99474.06;4951692;28;20234;-84
2023/03/12 04:56:39;;;;;;;354.50;70.93;;;0.20;99.90;;;-0.80;100.00;99485.31;4947951;28;20284;-84
2023/03/12 04:59:07;;;;;;;362.70;71.53;;;-0.60;99.90;;;-0.88;100.00;99497.13;4951042;28;20241;-84
2023/03/12 05:01:36;;;;;;;362.67;73.37;;;-0.70;99.90;;;-0.91;100.00;99494.41;4949813;28;20270;-84
2023/03/12 05:04:04;;;;;;;342.63;64.70;;;-0.10;99.90;;;-0.84;100.00;99503.31;4946328;28;20261;-84
2023/03/12 05:06:32;;;;;;;351.87;70.00;;;-0.20;99.90;;;-0.74;100.00;99518.44;4945527;28;20233;-84
2023/03/12 05:08:59;;;;;;;363.90;72.67;;;-0.60;99.90;;;-0.80;100.00;99524.25;4948462;28;20226;-84
2023/03/12 05:11:27;;;;;;;352.60;65.40;;;-0.70;99.90;;;-0.77;100.00;99534.75;4946662;28;20237;-84
2023/03/12 05:13:54;;;;;;;344.27;71.23;;;0.10;99.90;;;-0.89;100.00;99543.78;4954083;28;20245;-84
2023/03/12 05:16:21;;;;;;;366.87;75.23;;;-0.70;99.90;;;-0.93;100.00;99535.00;4964691;28;20699;-85
2023/03/12 05:18:49;;;;;;;364.80;72.40;;;0.10;99.90;;;-0.85;100.00;99538.78;4952032;28;20272;-84
2023/03/12 05:21:19;;;;;;;362.30;71.93;;;-0.70;99.90;;;-0.90;100.00;99536.81;4949123;28;20292;-84
2023/03/12 05:23:47;;;;;;;371.47;73.07;;;0.10;99.90;;;-0.93;100.00;99537.59;4954344;28;20233;-84
2023/03/12 05:26:22;;;;;;;361.43;71.57;;;-0.30;99.90;;;-0.84;100.00;99545.72;4955215;28;20237;-84
2023/03/12 05:28:51;;;;;;;350.60;66.37;;;-0.70;99.90;;;-0.86;100.00;99546.50;4951538;28;20449;-84
2023/03/12 05:31:18;;;;;;;350.33;66.13;;;0.00;99.90;;;-0.83;100.00;99552.69;4943215;29;20289;-84
2023/03/12 05:33:46;;;;;;;356.80;67.80;;;-0.30;99.90;;;-0.90;100.00;99549.78;4945734;28;20248;-84
2023/03/12 05:36:14;;;;;;;350.23;68.73;;;-0.70;99.90;;;-0.92;100.00;99530.69;4955413;28;20289;-84
2023/03/12 05:38:42;;;;;;;361.23;70.23;;;-1.00;99.90;;;-0.86;100.00;99546.50;4953126;28;20229;-83
2023/03/12 05:41:24;;;;;;;349.23;67.20;;;-0.10;99.90;;;-0.85;100.00;99554.34;4951984;29;20667;-83
2023/03/12 05:43:55;;;;;;;353.07;68.60;;;-0.70;99.90;;;-0.69;100.00;99563.63;4952181;28;20263;-83
2023/03/12 05:46:24;;;;;;;356.20;72.13;;;-0.10;99.90;;;-0.69;100.00;99567.09;4952382;28;20238;-83
2023/03/12 05:48:52;;;;;;;351.00;68.27;;;-0.50;99.90;;;-0.76;100.00;99557.31;4948705;28;20297;-84
2023/03/12 05:51:21;;;;;;;350.30;67.03;;;-0.60;99.90;;;-0.76;100.00;99557.31;4953786;28;20269;-84
2023/03/12 05:53:49;;;;;;;361.47;69.07;;;-0.60;99.90;;;-0.73;100.00;99569.53;4951219;28;20227;-84
2023/03/12 05:56:17;;;;;;;352.73;67.00;;;0.20;99.90;;;-0.73;100.00;99561.72;4956004;28;20242;-84
2023/03/12 05:58:48;;;;;;;356.03;68.53;;;-0.60;99.90;;;-0.68;100.00;99568.00;4949355;28;20230;-84
2023/03/12 06:01:26;;;;;;;350.43;68.27;;;0.00;99.90;;;-0.59;100.00;99580.44;4949574;28;20233;-83
2023/03/12 06:03:54;;;;;;;350.53;68.23;;;-0.50;99.90;;;-0.56;100.00;99593.56;4967715;28;20289;-83
2023/03/12 06:06:22;;;;;;;361.90;72.70;;;-0.40;99.90;;;-0.61;100.00;99585.59;4950790;28;20245;-82
2023/03/12 06:08:50;;;;;;;366.63;73.10;;;-0.40;99.90;;;-0.61;100.00;99595.09;4949363;28;20238;-83
2023/03/12 06:11:17;;;;;;;352.67;68.50;;;-0.50;99.90;;;-0.62;100.00;99602.00;4951819;28;20277;-82
2023/03/12 06:13:44;;;;;;;365.80;73.07;;;-0.40;99.90;;;-0.62;100.00;99591.59;4952055;28;20233;-82
2023/03/12 06:16:25;;;;;;;351.93;69.53;;;0.10;99.90;;;-0.55;100.00;99593.63;4951110;28;20340;-84
2023/03/12 06:18:58;;;;;;;354.97;69.07;;;-0.40;99.90;;;-0.52;100.00;99613.63;4938287;28;20304;-83
2023/03/12 06:21:29;;;;;;;364.93;73.00;;;-0.40;99.90;;;-0.56;100.00;99611.72;4926665;29;20237;-83
2023/03/12 06:23:57;;;;;;;345.07;67.83;;;-0.40;99.90;;;-0.50;100.00;99615.47;4955221;28;20257;-83
2023/03/12 06:26:25;;;;;;;353.83;71.57;;;-0.20;99.90;;;-0.58;100.00;99611.66;4948149;28;20234;-85
2023/03/12 06:28:53;;;;;;;359.50;72.50;;;0.20;99.90;;;-0.50;100.00;99619.75;4957020;28;20246;-83
2023/03/12 06:31:55;;;;;;;358.67;71.33;;;-0.40;99.90;;;-0.45;100.00;99626.91;4952298;28;20247;-84
2023/03/12 06:34:23;;;;;;;353.40;68.97;;;-0.30;99.90;;;-0.45;100.00;99634.72;4950234;28;20243;-84
2023/03/12 06:36:53;;;;;;;412.20;86.93;;;0.60;99.90;;;-0.32;100.00;99652.53;4943012;28;20268;-84
2023/03/12 06:39:23;;;;;;;355.23;69.40;;;0.60;99.90;;;-0.30;100.00;99670.78;4952267;28;20253;-82
2023/03/12 06:41:50;;;;;;;349.00;73.63;;;0.70;99.90;;;-0.27;100.00;99665.72;4946943;28;20240;-82
2023/03/12 06:44:18;;;;;;;355.23;71.67;;;-0.20;99.90;;;-0.25;100.00;99666.66;4937953;29;20230;-85
2023/03/12 06:46:45;;;;;;;357.10;72.13;;;-0.10;99.90;;;-0.28;100.00;99665.66;4947433;28;20229;-83
2023/03/12 06:49:13;;;;;;;352.97;69.43;;;-0.10;99.90;;;-0.24;100.00;99671.03;4951553;28;20241;-82
2023/03/12 06:51:41;;;;;;;365.80;75.67;;;0.70;99.90;;;-0.29;100.00;99658.69;4949003;28;20237;-82
2023/03/12 06:54:08;;;;;;;354.80;70.80;;;0.80;99.90;;;-0.21;100.00;99659.88;4967018;28;20248;-81
2023/03/12 06:56:35;;;;;;;364.10;75.13;;;0.80;99.90;;;-0.21;100.00;99657.28;4949532;28;20240;-82
2023/03/12 06:59:03;;;;;;;368.03;76.30;;;0.50;99.90;;;-0.20;100.00;99679.84;4950868;28;20245;-82
2023/03/12 07:01:30;;;;;;;352.40;70.47;;;0.00;99.90;;;-0.18;100.00;99673.00;4948405;28;20246;-82
2023/03/12 07:03:57;;;;;;;356.20;73.07;;;1.00;99.90;;;-0.16;100.00;99672.22;4929892;29;20246;-82
2023/03/12 07:06:25;;;;;;;363.37;74.70;;;0.70;99.90;;;-0.11;100.00;99677.59;4948100;28;20237;-81
2023/03/12 07:08:52;;;;;;;364.23;77.03;;;0.50;99.90;;;-0.11;100.00;99683.69;4949735;28;20306;-82
2023/03/12 07:11:19;;;;;;;369.97;78.43;;;0.60;99.90;;;-0.06;100.00;99684.75;4955379;28;20245;-81
2023/03/12 07:13:47;;;;;;;363.53;75.27;;;0.10;99.90;;;0.01;100.00;99700.63;4951265;28;20792;-83
2023/03/12 07:16:14;;;;;;;356.33;72.77;;;0.10;99.90;;;0.00;100.00;99704.94;4955275;28;20754;-81
2023/03/12 07:18:41;;;;;;;370.50;78.20;;;0.90;99.90;;;-0.01;100.00;99711.81;4954519;28;20261;-82
2023/03/12 07:21:08;;;;;;;364.40;72.93;;;0.80;99.90;;;0.03;100.00;99719.75;4953340;28;20233;-79
2023/03/12 07:23:36;;;;;;;355.90;76.20;;;0.80;99.90;;;-0.03;100.00;99712.56;4947055;28;20226;-81
2023/03/12 07:26:05;;;;;;;358.13;75.03;;;0.20;99.90;;;-0.14;100.00;99724.25;4943694;29;20237;-78
2023/03/12 07:28:32;;;;;;;357.70;74.47;;;0.10;99.90;;;-0.15;100.00;99723.38;4951987;28;20241;-81
2023/03/12 07:31:03;;;;;;;353.60;71.70;;;0.00;99.90;;;-0.20;100.00;99724.91;4953259;28;20249;-83
2023/03/12 07:33:31;;;;;;;353.17;74.67;;;0.30;99.90;;;-0.21;100.00;99736.13;4951175;28;20306;-82
2023/03/12 07:35:59;;;;;;;353.80;74.80;;;0.00;99.90;;;-0.18;100.00;99730.16;4963842;28;20238;-82
2023/03/12 07:38:26;;;;;;;357.20;74.23;;;0.70;99.90;;;-0.13;100.00;99745.09;4948983;28;20248;-83
2023/03/12 07:40:56;;;;;;;349.97;71.27;;;1.00;99.90;;;-0.17;100.00;99750.13;4952698;28;20297;-83
2023/03/12 07:43:24;;;;;;;347.97;72.27;;;1.00;99.90;;;-0.22;100.00;99746.44;4944941;28;20245;-83
2023/03/12 07:45:51;;;;;;;343.00;68.80;;;0.50;99.90;;;-0.21;100.00;99751.69;4949490;28;20249;-82
2023/03/12 07:48:19;;;;;;;356.67;74.37;;;0.00;99.90;;;-0.19;100.00;99764.75;4946131;29;20250;-82
2023/03/12 07:50:46;;;;;;;351.90;70.70;;;-0.10;99.90;;;-0.02;100.00;99780.22;4943216;28;20246;-83
2023/03/12 07:53:14;;;;;;;342.33;69.53;;;0.30;99.90;;;0.06;100.00;99793.53;4948329;28;20253;-82
2023/03/12 07:55:44;;;;;;;350.10;73.33;;;0.30;99.90;;;0.22;100.00;99806.34;4953694;28;20264;-83
2023/03/12 07:58:14;;;;;;;347.47;71.83;;;0.80;99.90;;;0.05;100.00;99794.38;4941352;29;20245;-82
2023/03/12 08:00:42;;;;;;;348.97;72.00;;;0.30;99.90;;;0.14;100.00;99799.06;4943759;28;20237;-84
2023/03/12 08:03:09;;;;;;;347.60;68.33;;;0.30;99.90;;;0.31;100.00;99809.28;4958724;28;20245;-83
2023/03/12 08:05:36;;;;;;;344.23;66.67;;;0.40;99.90;;;0.36;100.00;99817.28;4955758;28;20252;-83
2023/03/12 08:08:07;;;;;;;343.90;77.10;;;0.60;99.90;;;0.29;100.00;99802.25;4971392;28;20238;-83
2023/03/12 08:10:36;;;;;;;350.37;71.17;;;0.40;99.90;;;0.24;100.00;99796.00;4937623;28;20250;-83
2023/03/12 08:13:03;;;;;;;346.10;72.33;;;0.40;99.90;;;0.27;100.00;99784.00;4933328;29;20264;-83
2023/03/12 08:15:30;;;;;;;349.10;75.97;;;0.40;99.90;;;0.30;100.00;99785.84;4945061;28;20281;-82
2023/03/12 08:17:58;;;;;;;345.17;75.87;;;1.40;99.90;;;0.32;100.00;99776.38;4955606;28;20241;-82
2023/03/12 08:20:25;;;;;;;349.50;77.00;;;0.90;99.90;;;0.30;100.00;99765.91;4968843;28;20301;-83
2023/03/12 08:22:53;;;;;;;350.10;78.17;;;0.50;99.90;;;0.45;100.00;99755.22;4949769;28;20248;-83
2023/03/12 08:25:20;;;;;;;351.83;79.20;;;0.50;99.90;;;0.63;100.00;99744.63;4948622;28;20237;-83
2023/03/12 08:27:47;;;;;;;357.23;80.87;;;1.20;99.90;;;0.60;100.00;99695.06;4947121;28;20233;-83
2023/03/12 08:30:17;;;;;;;351.67;83.70;;;0.70;99.90;;;0.72;100.00;99646.06;4950874;28;20258;-84
2023/03/12 08:32:45;;;;;;;348.93;79.43;;;0.80;99.90;;;0.79;100.00;99574.31;4952225;28;20261;-84
2023/03/12 08:35:12;;;;;;;348.42;74.82;;;1.50;99.90;;;0.59;100.00;99517.28;4948965;28;20640;-85
2023/03/12 08:37:40;;;;;;;359.05;88.50;;;0.80;99.90;;;0.77;100.00;99479.69;4946352;28;20388;-83
2023/03/12 08:40:12;;;;;;;347.65;73.97;;;1.80;99.90;;;0.87;100.00;99447.91;4943446;28;20314;-83
2023/03/12 08:42:41;;;;;;;359.20;81.82;;;1.00;99.90;;;0.81;100.00;99430.38;4945289;28;20256;-85
2023/03/12 08:45:10;;;;;;;348.37;74.27;;;2.00;99.90;;;0.83;100.00;99394.88;4944670;28;20242;-84
2023/03/12 08:47:40;;;;;;;356.75;79.22;;;1.00;99.90;;;0.92;100.00;99373.47;4950449;28;20265;-84
2023/03/12 08:50:11;;;;;;;349.38;72.20;;;1.60;99.90;;;1.23;100.00;99377.84;4941727;28;20262;-83
2023/03/12 08:52:39;;;;;;;351.90;82.50;;;1.30;99.90;;;1.13;100.00;99358.47;4945978;28;20235;-83
2023/03/12 08:55:07;;;;;;;367.33;79.72;;;1.20;99.90;;;1.31;100.00;99349.47;4948768;28;20233;-83
2023/03/12 08:57:34;;;;;;;352.50;74.07;;;1.40;99.90;;;1.26;100.00;99331.94;4950425;28;20246;-84
2023/03/12 09:00:10;;;;;;;351.90;76.57;;;2.10;99.90;;;1.28;100.00;99317.25;4946029;28;20234;-84
2023/03/12 09:02:38;;;;;;;357.52;81.28;;;1.40;99.90;;;1.38;100.00;99315.81;4954315;28;20240;-85
2023/03/12 09:05:06;;;;;;;357.08;77.70;;;2.00;99.90;;;1.26;100.00;99305.03;4945846;28;20305;-84
2023/03/12 09:07:33;;;;;;;357.83;78.67;;;1.40;99.90;;;1.42;100.00;99302.03;4952613;28;20240;-85
2023/03/12 09:10:00;;;;;;;358.73;79.63;;;1.50;99.90;;;1.54;100.00;99306.69;4949090;28;20230;-84
2023/03/12 09:12:27;;;;;;;352.50;75.63;;;1.60;99.90;;;1.53;100.00;99299.72;4945779;28;20241;-85
2023/03/12 09:14:54;;;;;;;365.45;81.15;;;1.90;99.90;;;1.62;100.00;99301.69;4940861;28;20282;-84
2023/03/12 09:17:30;;;;;;;361.95;79.90;;;1.90;99.90;;;1.61;100.00;99306.00;4951103;28;20300;-85
2023/03/12 09:19:57;;;;;;;360.92;80.95;;;1.80;99.90;;;1.75;100.00;99299.44;4952869;28;20329;-84
2023/03/12 09:22:25;;;;;;;361.83;80.93;;;2.50;99.90;;;1.86;100.00;99318.84;4950962;28;20233;-84
2023/03/12 09:24:52;;;;;;;368.13;82.70;;;2.00;99.90;;;2.04;100.00;99341.00;4942222;28;20285;-85
2023/03/12 09:27:19;;;;;;;356.95;80.22;;;2.10;99.90;;;2.14;100.00;99350.81;4944351;28;20242;-84
2023/03/12 09:29:50;;;;;;;354.88;79.32;;;2.30;99.90;;;2.46;100.00;99388.13;4944465;28;20242;-85
2023/03/12 09:32:28;;;;;;;368.30;92.95;;;2.70;99.90;;;2.77;100.00;99400.22;4948454;28;20237;-83
2023/03/12 09:34:56;;;;;;;374.65;94.47;;;2.70;99.90;;;2.60;100.00;99401.53;4950330;28;20274;-84
2023/03/12 09:37:24;;;;;;;364.35;86.57;;;2.70;99.90;;;2.58;100.00;99418.03;4956383;28;20233;-84
2023/03/12 09:39:52;;;;;;;382.05;106.90;;;2.70;99.90;;;2.57;100.00;99421.47;4943266;28;20233;-84
2023/03/12 09:43:10;;;;;;;360.92;93.32;;;2.70;99.90;;;2.83;100.00;99455.19;4949112;28;20249;-84
2023/03/12 09:45:42;;;;;;;360.42;87.78;;;2.80;99.90;;;2.98;100.00;99480.78;4946901;28;20233;-85
2023/03/12 09:48:26;;;;;;;363.73;89.68;;;3.60;99.90;;;3.29;100.00;99516.34;4941655;28;20323;-85
2023/03/12 09:50:53;;;;;;;370.30;100.72;;;3.70;99.90;;;3.26;100.00;99519.78;4947769;28;20238;-84
2023/03/12 09:53:33;;;;;;;372.80;93.55;;;3.30;99.90;;;3.57;100.00;99547.50;4950865;28;20288;-84
2023/03/12 09:56:09;;;;;;;363.67;93.00;;;3.50;99.90;;;3.56;100.00;99557.91;4941509;28;20238;-85
2023/03/12 09:58:37;;;;;;;368.50;100.63;;;3.60;99.90;;;3.81;100.00;99578.53;4954513;28;20237;-85
2023/03/12 10:01:10;;;;;;;370.08;96.40;;;3.80;99.90;;;3.98;100.00;99605.09;4935496;29;20240;-84
2023/03/12 10:03:59;;;;;;;369.13;104.57;;;3.90;99.90;;;4.42;100.00;99638.34;4955233;28;20234;-84
2023/03/12 10:07:12;;;;;;;373.25;101.97;;;4.40;99.90;;;4.71;100.00;99662.50;4950531;28;20242;-84